createdAt,value
2022-07-30T00:00:11.493Z,7.50
2022-07-30T00:01:11.512Z,6.80
2022-07-30T00:02:11.423Z,6.70
2022-07-30T00:03:11.401Z,6.90
2022-07-30T00:04:11.377Z,7.70
2022-07-30T00:05:11.380Z,7.70
2022-07-30T00:06:11.333Z,7.40
2022-07-30T00:07:11.309Z,8.20
2022-07-30T00:08:11.287Z,8.10
2022-07-30T00:09:11.264Z,7.80
2022-07-30T00:10:11.269Z,8.10
2022-07-30T00:11:11.218Z,7.40
2022-07-30T00:12:11.194Z,7.10
2022-07-30T00:13:14.064Z,6.90
2022-07-30T00:14:11.152Z,7.00
2022-07-30T00:15:11.157Z,6.80
2022-07-30T00:16:11.173Z,7.20
2022-07-30T00:17:11.126Z,7.10
2022-07-30T00:18:11.168Z,7.30
2022-07-30T00:19:11.041Z,7.30
2022-07-30T00:20:11.358Z,6.70
2022-07-30T00:21:11.176Z,6.90
2022-07-30T00:22:11.975Z,7.30
2022-07-30T00:23:10.955Z,7.00
2022-07-30T00:24:10.935Z,7.30
2022-07-30T00:25:10.937Z,7.20
2022-07-30T00:26:10.890Z,7.10
2022-07-30T00:27:10.862Z,7.30
2022-07-30T00:28:10.863Z,7.30
2022-07-30T00:29:10.823Z,7.20
2022-07-30T00:30:10.823Z,7.20
2022-07-30T00:31:10.829Z,7.30
2022-07-30T00:32:10.758Z,7.50
2022-07-30T00:33:10.729Z,7.90
2022-07-30T00:34:10.709Z,7.50
2022-07-30T00:35:10.713Z,7.90
2022-07-30T00:36:10.668Z,8.30
2022-07-30T00:37:10.644Z,8.50
2022-07-30T00:38:10.623Z,8.70
2022-07-30T00:39:10.601Z,8.00
2022-07-30T00:40:10.602Z,7.50
2022-07-30T00:41:10.553Z,7.80
2022-07-30T00:42:10.529Z,7.90
2022-07-30T00:43:10.506Z,8.30
2022-07-30T00:44:10.487Z,8.30
2022-07-30T00:45:10.496Z,8.50
2022-07-30T00:46:10.565Z,8.30
2022-07-30T00:47:10.422Z,7.60
2022-07-30T00:48:10.396Z,8.40
2022-07-30T00:49:10.429Z,7.70
2022-07-30T00:50:10.380Z,8.00
2022-07-30T00:51:10.329Z,7.80
2022-07-30T00:52:10.305Z,7.90
2022-07-30T00:53:10.281Z,8.40
2022-07-30T00:54:10.263Z,8.90
2022-07-30T00:55:10.271Z,8.20
2022-07-30T00:56:10.219Z,8.30
2022-07-30T00:57:10.198Z,7.60
2022-07-30T00:58:10.172Z,8.40
2022-07-30T00:59:10.155Z,8.70
2022-07-30T01:00:10.157Z,8.90
2022-07-30T01:01:10.176Z,8.80
2022-07-30T01:02:10.173Z,9.00
2022-07-30T01:03:10.065Z,8.70
2022-07-30T01:04:10.123Z,8.80
2022-07-30T01:05:10.049Z,8.70
2022-07-30T01:06:14.545Z,8.60
2022-07-30T01:07:09.977Z,8.10
2022-07-30T01:08:10.039Z,8.30
2022-07-30T01:09:09.937Z,8.10
2022-07-30T01:10:09.948Z,8.60
2022-07-30T01:11:09.895Z,8.50
2022-07-30T01:12:09.869Z,8.70
2022-07-30T01:13:09.862Z,8.70
2022-07-30T01:14:09.832Z,8.70
2022-07-30T01:15:09.808Z,8.80
2022-07-30T01:16:09.856Z,9.30
2022-07-30T01:17:09.764Z,8.70
2022-07-30T01:18:09.743Z,8.60
2022-07-30T01:19:09.732Z,8.40
2022-07-30T01:20:09.729Z,8.80
2022-07-30T01:21:09.702Z,8.40
2022-07-30T01:22:09.658Z,8.50
2022-07-30T01:23:09.632Z,9.10
2022-07-30T01:24:09.614Z,9.10
2022-07-30T01:25:09.593Z,9.30
2022-07-30T01:26:09.595Z,8.90
2022-07-30T01:27:09.545Z,9.10
2022-07-30T01:28:09.518Z,9.30
2022-07-30T01:29:09.502Z,9.00
2022-07-30T01:30:09.506Z,9.00
2022-07-30T01:31:09.487Z,9.10
2022-07-30T01:32:09.430Z,9.50
2022-07-30T01:33:09.409Z,9.30
2022-07-30T01:34:09.388Z,9.00
2022-07-30T01:35:09.366Z,8.90
2022-07-30T01:36:09.373Z,9.60
2022-07-30T01:37:09.321Z,9.30
2022-07-30T01:38:09.302Z,10.00
2022-07-30T01:39:09.279Z,9.60
2022-07-30T01:40:09.289Z,9.40
2022-07-30T01:41:09.234Z,9.60
2022-07-30T01:42:09.250Z,9.40
2022-07-30T01:43:09.189Z,9.50
2022-07-30T01:44:09.167Z,9.30
2022-07-30T01:45:09.151Z,9.40
2022-07-30T01:46:09.231Z,9.30
2022-07-30T01:47:09.100Z,9.40
2022-07-30T01:48:09.076Z,9.30
2022-07-30T01:49:09.074Z,8.70
2022-07-30T01:50:11.129Z,8.90
2022-07-30T01:51:09.037Z,9.10
2022-07-30T01:52:08.989Z,9.00
2022-07-30T01:53:08.967Z,9.40
2022-07-30T01:54:08.945Z,9.20
2022-07-30T01:55:16.965Z,9.60
2022-07-30T01:56:10.719Z,9.70
2022-07-30T01:57:08.876Z,9.80
2022-07-30T01:58:08.853Z,9.00
2022-07-30T01:59:09.519Z,9.20
2022-07-30T02:00:08.811Z,9.30
2022-07-30T02:01:08.866Z,9.30
2022-07-30T02:02:08.798Z,9.30
2022-07-30T02:03:08.856Z,9.30
2022-07-30T02:04:08.726Z,9.80
2022-07-30T02:05:08.706Z,9.50
2022-07-30T02:06:08.731Z,9.80
2022-07-30T02:07:08.662Z,10.00
2022-07-30T02:08:08.645Z,9.60
2022-07-30T02:09:10.703Z,9.20
2022-07-30T02:10:08.604Z,9.10
2022-07-30T02:11:08.606Z,9.40
2022-07-30T02:12:08.558Z,9.00
2022-07-30T02:13:08.534Z,9.70
2022-07-30T02:14:08.510Z,9.70
2022-07-30T02:15:08.488Z,9.80
2022-07-30T02:16:08.544Z,9.50
2022-07-30T02:17:08.444Z,9.30
2022-07-30T02:18:09.423Z,9.40
2022-07-30T02:19:08.400Z,9.00
2022-07-30T02:20:10.096Z,8.60
2022-07-30T02:21:11.446Z,8.70
2022-07-30T02:22:08.546Z,8.40
2022-07-30T02:23:08.315Z,8.50
2022-07-30T02:24:08.294Z,8.10
2022-07-30T02:25:08.269Z,8.00
2022-07-30T02:26:08.273Z,8.20
2022-07-30T02:27:08.227Z,7.20
2022-07-30T02:28:08.201Z,8.20
2022-07-30T02:29:11.235Z,7.70
2022-07-30T02:30:09.162Z,8.10
2022-07-30T02:31:17.656Z,7.80
2022-07-30T02:32:09.113Z,7.90
2022-07-30T02:33:08.091Z,7.80
2022-07-30T02:34:08.072Z,7.40
2022-07-30T02:35:08.049Z,7.90
2022-07-30T02:36:11.341Z,7.90
2022-07-30T02:37:08.007Z,8.10
2022-07-30T02:38:07.980Z,9.30
2022-07-30T02:39:07.956Z,10.70
2022-07-30T02:40:07.932Z,11.30
2022-07-30T02:41:07.939Z,11.50
2022-07-30T02:42:07.889Z,11.80
2022-07-30T02:43:07.865Z,11.30
2022-07-30T02:44:07.845Z,11.20
2022-07-30T02:45:07.824Z,11.20
2022-07-30T02:46:07.824Z,11.00
2022-07-30T02:47:07.857Z,10.70
2022-07-30T02:48:07.759Z,10.60
2022-07-30T02:49:07.824Z,11.00
2022-07-30T02:50:07.711Z,11.60
2022-07-30T02:51:07.716Z,11.90
2022-07-30T02:52:07.667Z,11.60
2022-07-30T02:53:07.642Z,11.90
2022-07-30T02:54:07.619Z,11.10
2022-07-30T02:55:07.604Z,11.60
2022-07-30T02:56:07.607Z,11.00
2022-07-30T02:57:07.554Z,11.90
2022-07-30T02:58:07.539Z,11.20
2022-07-30T02:59:07.511Z,11.50
2022-07-30T03:00:07.487Z,10.90
2022-07-30T03:01:07.606Z,11.20
2022-07-30T03:02:07.479Z,11.40
2022-07-30T03:03:07.426Z,11.30
2022-07-30T03:04:07.399Z,11.50
2022-07-30T03:05:07.376Z,11.70
2022-07-30T03:06:07.401Z,10.90
2022-07-30T03:07:08.591Z,11.40
2022-07-30T03:08:08.341Z,11.60
2022-07-30T03:09:07.292Z,10.90
2022-07-30T03:10:07.269Z,11.30
2022-07-30T03:11:07.270Z,11.30
2022-07-30T03:12:07.224Z,11.30
2022-07-30T03:13:07.204Z,11.70
2022-07-30T03:14:07.176Z,11.70
2022-07-30T03:15:07.157Z,11.60
2022-07-30T03:16:07.188Z,11.80
2022-07-30T03:17:07.114Z,11.80
2022-07-30T03:18:07.093Z,11.80
2022-07-30T03:19:07.068Z,11.20
2022-07-30T03:20:07.047Z,11.80
2022-07-30T03:21:07.057Z,11.90
2022-07-30T03:22:07.003Z,12.40
2022-07-30T03:23:06.978Z,11.90
2022-07-30T03:24:06.959Z,11.70
2022-07-30T03:25:06.934Z,11.60
2022-07-30T03:26:06.938Z,11.30
2022-07-30T03:27:06.887Z,11.30
2022-07-30T03:28:06.872Z,11.80
2022-07-30T03:29:06.842Z,12.10
2022-07-30T03:30:06.822Z,12.50
2022-07-30T03:31:06.858Z,11.70
2022-07-30T03:32:06.819Z,11.10
2022-07-30T03:33:06.755Z,11.60
2022-07-30T03:34:06.734Z,12.00
2022-07-30T03:35:08.844Z,11.40
2022-07-30T03:36:07.711Z,11.90
2022-07-30T03:37:06.680Z,11.10
2022-07-30T03:38:06.642Z,11.50
2022-07-30T03:39:06.620Z,11.50
2022-07-30T03:40:06.597Z,11.50
2022-07-30T03:41:06.610Z,11.90
2022-07-30T03:42:06.555Z,11.70
2022-07-30T03:43:18.557Z,11.90
2022-07-30T03:44:07.513Z,11.60
2022-07-30T03:45:06.490Z,10.80
2022-07-30T03:46:06.559Z,10.90
2022-07-30T03:47:06.498Z,11.00
2022-07-30T03:48:06.421Z,11.10
2022-07-30T03:49:06.482Z,11.20
2022-07-30T03:50:06.391Z,11.20
2022-07-30T03:51:06.357Z,10.80
2022-07-30T03:52:06.344Z,10.10
2022-07-30T03:53:06.317Z,10.40
2022-07-30T03:54:08.453Z,10.60
2022-07-30T03:55:07.273Z,10.20
2022-07-30T03:56:06.281Z,10.30
2022-07-30T03:57:06.228Z,10.30
2022-07-30T03:58:06.208Z,9.90
2022-07-30T03:59:06.184Z,10.30
2022-07-30T04:00:06.165Z,10.10
2022-07-30T04:01:06.166Z,10.40
2022-07-30T04:02:07.427Z,10.60
2022-07-30T04:03:06.095Z,10.70
2022-07-30T04:04:06.140Z,10.30
2022-07-30T04:05:06.048Z,10.20
2022-07-30T04:06:06.057Z,10.40
2022-07-30T04:07:06.004Z,10.00
2022-07-30T04:08:05.984Z,10.00
2022-07-30T04:09:05.959Z,9.50
2022-07-30T04:10:05.938Z,9.90
2022-07-30T04:11:05.949Z,9.20
2022-07-30T04:12:05.896Z,9.50
2022-07-30T04:13:09.441Z,9.60
2022-07-30T04:14:06.876Z,9.50
2022-07-30T04:16:35.555Z,8.80
2022-07-30T04:16:38.956Z,9.30
2022-07-30T04:17:07.826Z,8.70
2022-07-30T04:18:05.767Z,8.70
2022-07-30T04:19:05.767Z,8.30
2022-07-30T04:20:05.715Z,8.20
2022-07-30T04:21:05.719Z,7.70
2022-07-30T04:22:05.669Z,8.30
2022-07-30T04:23:05.647Z,8.10
2022-07-30T04:24:05.866Z,8.60
2022-07-30T04:25:05.601Z,9.10
2022-07-30T04:26:05.606Z,8.60
2022-07-30T04:27:05.562Z,8.50
2022-07-30T04:28:05.538Z,9.00
2022-07-30T04:29:05.521Z,8.90
2022-07-30T04:30:05.489Z,8.80
2022-07-30T04:31:05.552Z,8.40
2022-07-30T04:32:05.448Z,8.80
2022-07-30T04:33:05.430Z,8.10
2022-07-30T04:34:05.405Z,8.30
2022-07-30T04:35:05.380Z,7.90
2022-07-30T04:36:05.388Z,7.30
2022-07-30T04:37:05.338Z,6.90
2022-07-30T04:38:05.316Z,7.40
2022-07-30T04:39:05.292Z,6.20
2022-07-30T04:40:05.272Z,6.00
2022-07-30T04:41:05.273Z,6.10
2022-07-30T04:42:05.226Z,6.60
2022-07-30T04:43:05.206Z,6.00
2022-07-30T04:44:05.186Z,6.20
2022-07-30T04:45:05.161Z,6.10
2022-07-30T04:46:05.209Z,6.00
2022-07-30T04:47:05.118Z,6.40
2022-07-30T04:48:05.095Z,6.20
2022-07-30T04:49:05.153Z,6.00
2022-07-30T04:50:05.049Z,6.60
2022-07-30T04:51:05.058Z,6.20
2022-07-30T04:52:05.011Z,6.80
2022-07-30T04:53:04.986Z,6.50
2022-07-30T04:54:04.967Z,5.90
2022-07-30T04:55:04.941Z,5.90
2022-07-30T04:56:04.945Z,6.20
2022-07-30T04:57:05.129Z,6.50
2022-07-30T04:58:04.892Z,6.20
2022-07-30T04:59:04.849Z,6.50
2022-07-30T05:00:04.829Z,5.90
2022-07-30T05:01:04.828Z,6.10
2022-07-30T05:02:04.856Z,6.60
2022-07-30T05:03:04.763Z,6.00
2022-07-30T05:04:04.736Z,6.20
2022-07-30T05:05:04.800Z,6.90
2022-07-30T05:06:04.719Z,6.50
2022-07-30T05:07:05.094Z,8.00
2022-07-30T05:08:04.644Z,7.50
2022-07-30T05:09:04.626Z,8.10
2022-07-30T05:10:04.597Z,7.60
2022-07-30T05:11:04.600Z,7.70
2022-07-30T05:12:04.551Z,8.30
2022-07-30T05:13:04.535Z,7.90
2022-07-30T05:14:04.505Z,7.80
2022-07-30T05:15:04.487Z,8.70
2022-07-30T05:16:04.572Z,8.00
2022-07-30T05:17:04.626Z,8.40
2022-07-30T05:18:04.984Z,8.40
2022-07-30T05:19:07.605Z,9.10
2022-07-30T05:20:05.383Z,8.70
2022-07-30T05:21:04.385Z,8.80
2022-07-30T05:22:06.746Z,8.80
2022-07-30T05:23:05.312Z,9.80
2022-07-30T05:24:04.293Z,10.60
2022-07-30T05:25:04.267Z,11.20
2022-07-30T05:26:04.277Z,11.40
2022-07-30T05:27:04.437Z,11.50
2022-07-30T05:28:04.203Z,11.60
2022-07-30T05:29:07.246Z,11.40
2022-07-30T05:30:04.162Z,9.50
2022-07-30T05:31:08.199Z,9.90
2022-07-30T05:32:04.115Z,9.80
2022-07-30T05:33:12.203Z,9.40
2022-07-30T05:34:05.073Z,9.20
2022-07-30T05:35:04.048Z,8.80
2022-07-30T05:36:04.055Z,9.00
2022-07-30T05:37:04.368Z,9.00
2022-07-30T05:38:03.985Z,8.70
2022-07-30T05:39:03.963Z,7.20
2022-07-30T05:40:03.973Z,7.30
2022-07-30T05:41:03.944Z,7.40
2022-07-30T05:42:04.900Z,7.10
2022-07-30T05:43:03.877Z,7.20
2022-07-30T05:44:03.869Z,7.00
2022-07-30T05:45:03.835Z,7.10
2022-07-30T05:46:03.884Z,6.90
2022-07-30T05:47:03.958Z,7.40
2022-07-30T05:48:03.762Z,6.90
2022-07-30T05:49:04.888Z,7.50
2022-07-30T05:50:05.507Z,6.60
2022-07-30T05:51:04.733Z,6.70
2022-07-30T05:52:03.679Z,6.80
2022-07-30T05:53:03.661Z,7.00
2022-07-30T05:54:03.639Z,6.60
2022-07-30T05:55:03.616Z,6.50
2022-07-30T05:56:03.619Z,6.50
2022-07-30T05:57:04.029Z,6.40
2022-07-30T05:58:04.551Z,6.20
2022-07-30T05:59:03.534Z,6.10
2022-07-30T06:00:03.511Z,6.30
2022-07-30T06:01:03.509Z,5.90
2022-07-30T06:02:03.623Z,6.10
2022-07-30T06:03:03.453Z,6.10
2022-07-30T06:04:03.450Z,6.20
2022-07-30T06:05:03.519Z,6.40
2022-07-30T06:06:03.410Z,5.90
2022-07-30T06:07:03.755Z,5.90
2022-07-30T06:08:03.337Z,5.60
2022-07-30T06:09:03.314Z,5.90
2022-07-30T06:10:03.295Z,6.00
2022-07-30T06:11:03.310Z,5.90
2022-07-30T06:12:03.247Z,5.60
2022-07-30T06:13:03.225Z,6.00
2022-07-30T06:14:03.208Z,6.10
2022-07-30T06:15:03.187Z,6.00
2022-07-30T06:16:03.212Z,6.00
2022-07-30T06:17:03.564Z,5.70
2022-07-30T06:18:03.120Z,6.10
2022-07-30T06:19:03.530Z,6.50
2022-07-30T06:20:03.065Z,6.50
2022-07-30T06:21:04.079Z,6.40
2022-07-30T06:22:06.678Z,5.90
2022-07-30T06:23:03.004Z,5.80
2022-07-30T06:24:02.981Z,5.70
2022-07-30T06:25:02.961Z,6.00
2022-07-30T06:26:02.967Z,5.90
2022-07-30T06:27:03.477Z,6.10
2022-07-30T06:28:15.645Z,6.10
2022-07-30T06:29:04.875Z,6.20
2022-07-30T06:30:02.857Z,6.30
2022-07-30T06:31:02.910Z,6.00
2022-07-30T06:32:02.812Z,5.80
2022-07-30T06:33:02.794Z,6.20
2022-07-30T06:34:02.778Z,6.30
2022-07-30T06:35:05.000Z,6.00
2022-07-30T06:36:03.748Z,6.60
2022-07-30T06:37:03.129Z,6.30
2022-07-30T06:38:07.291Z,6.00
2022-07-30T06:39:03.657Z,6.70
2022-07-30T06:40:02.639Z,6.30
2022-07-30T06:41:04.484Z,6.60
2022-07-30T06:42:02.590Z,6.50
2022-07-30T06:43:02.567Z,6.30
2022-07-30T06:44:02.554Z,6.00
2022-07-30T06:45:02.523Z,6.70
2022-07-30T06:46:02.573Z,6.10
2022-07-30T06:47:07.475Z,6.60
2022-07-30T06:48:04.449Z,6.80
2022-07-30T06:49:02.501Z,6.70
2022-07-30T06:50:02.410Z,7.10
2022-07-30T06:51:02.392Z,7.10
2022-07-30T06:52:02.397Z,7.10
2022-07-30T06:53:02.346Z,7.00
2022-07-30T06:54:02.332Z,7.60
2022-07-30T06:55:02.305Z,7.60
2022-07-30T06:56:02.287Z,7.30
2022-07-30T06:57:02.682Z,7.20
2022-07-30T06:58:02.239Z,7.30
2022-07-30T06:59:02.222Z,7.80
2022-07-30T07:00:02.202Z,7.70
2022-07-30T07:01:02.304Z,7.60
2022-07-30T07:02:02.187Z,7.80
2022-07-30T07:03:02.141Z,7.60
2022-07-30T07:04:02.154Z,7.10
2022-07-30T07:05:02.093Z,7.50
2022-07-30T07:06:02.073Z,7.00
2022-07-30T07:07:12.198Z,7.40
2022-07-30T07:08:03.033Z,7.60
2022-07-30T07:09:02.016Z,7.40
2022-07-30T07:10:01.990Z,6.90
2022-07-30T07:11:01.973Z,7.60
2022-07-30T07:12:01.984Z,7.40
2022-07-30T07:13:01.941Z,7.20
2022-07-30T07:14:04.659Z,6.90
2022-07-30T07:15:02.885Z,6.90
2022-07-30T07:16:01.870Z,7.00
2022-07-30T07:17:02.259Z,6.90
2022-07-30T07:18:02.361Z,7.70
2022-07-30T07:19:01.799Z,7.30
2022-07-30T07:20:02.782Z,7.50
2022-07-30T07:21:02.765Z,6.90
2022-07-30T07:22:01.768Z,8.00
2022-07-30T07:23:06.574Z,7.20
2022-07-30T07:24:03.699Z,7.40
2022-07-30T07:25:01.691Z,7.20
2022-07-30T07:26:01.660Z,7.20
2022-07-30T07:27:02.045Z,6.80
2022-07-30T07:28:12.039Z,6.40
2022-07-30T07:29:05.221Z,6.50
2022-07-30T07:30:05.525Z,6.20
2022-07-30T07:31:01.608Z,6.60
2022-07-30T07:32:05.707Z,6.50
2022-07-30T07:33:02.517Z,6.80
2022-07-30T07:34:01.509Z,6.60
2022-07-30T07:35:01.494Z,6.80
2022-07-30T07:36:01.463Z,6.40
2022-07-30T07:37:01.752Z,7.00
2022-07-30T07:38:01.418Z,6.80
2022-07-30T07:39:02.401Z,7.00
2022-07-30T07:40:01.386Z,6.30
2022-07-30T07:41:01.362Z,6.60
2022-07-30T07:42:01.368Z,6.30
2022-07-30T07:43:01.320Z,6.60
2022-07-30T07:44:01.301Z,6.50
2022-07-30T07:45:01.285Z,6.10
2022-07-30T07:46:01.333Z,6.10
2022-07-30T07:47:01.606Z,5.90
2022-07-30T07:48:01.229Z,6.20
2022-07-30T07:49:01.288Z,6.00
2022-07-30T07:50:01.186Z,5.50
2022-07-30T07:51:01.167Z,6.50
2022-07-30T07:52:01.174Z,5.80
2022-07-30T07:53:01.132Z,5.80
2022-07-30T07:54:20.493Z,5.90
2022-07-30T07:55:03.347Z,5.40
2022-07-30T07:56:01.074Z,5.50
2022-07-30T07:57:01.298Z,5.60
2022-07-30T07:58:01.033Z,5.40
2022-07-30T07:59:01.018Z,5.50
2022-07-30T08:00:00.996Z,5.60
2022-07-30T08:01:01.019Z,5.80
2022-07-30T08:02:01.052Z,5.70
2022-07-30T08:03:00.943Z,5.70
2022-07-30T08:04:00.926Z,4.70
2022-07-30T08:05:00.906Z,4.40
2022-07-30T08:06:05.793Z,4.60
2022-07-30T08:07:02.356Z,4.70
2022-07-30T08:08:00.855Z,5.10
2022-07-30T08:09:00.833Z,4.60
2022-07-30T08:10:00.820Z,5.00
2022-07-30T08:11:00.801Z,4.70
2022-07-30T08:12:00.812Z,4.70
2022-07-30T08:13:00.764Z,4.70
2022-07-30T08:14:00.743Z,4.80
2022-07-30T08:15:00.732Z,4.80
2022-07-30T08:16:00.707Z,5.10
2022-07-30T08:17:01.277Z,4.80
2022-07-30T08:18:00.678Z,5.10
2022-07-30T08:19:01.458Z,5.10
2022-07-30T08:20:00.639Z,5.30
2022-07-30T08:21:00.621Z,5.50
2022-07-30T08:22:00.631Z,5.10
2022-07-30T08:23:00.588Z,5.50
2022-07-30T08:24:00.571Z,5.50
2022-07-30T08:25:00.554Z,5.70
2022-07-30T08:26:00.535Z,5.70
2022-07-30T08:27:00.806Z,5.50
2022-07-30T08:28:00.501Z,5.90
2022-07-30T08:29:00.481Z,5.50
2022-07-30T08:30:00.463Z,6.00
2022-07-30T08:31:02.411Z,5.80
2022-07-30T08:32:01.720Z,6.00
2022-07-30T08:33:00.414Z,5.40
2022-07-30T08:34:00.394Z,5.70
2022-07-30T08:35:00.376Z,6.00
2022-07-30T08:36:04.176Z,5.70
2022-07-30T08:37:00.363Z,5.30
2022-07-30T08:38:00.321Z,5.20
2022-07-30T08:39:00.306Z,5.10
2022-07-30T08:40:00.288Z,5.20
2022-07-30T08:41:00.268Z,5.20
2022-07-30T08:42:00.529Z,5.60
2022-07-30T08:43:00.237Z,5.60
2022-07-30T08:44:00.219Z,5.70
2022-07-30T08:45:00.221Z,4.90
2022-07-30T08:46:00.186Z,5.70
2022-07-30T08:47:00.450Z,5.40
2022-07-30T08:48:00.149Z,5.00
2022-07-30T08:49:05.369Z,4.90
2022-07-30T08:50:01.110Z,5.20
2022-07-30T08:51:00.095Z,5.10
2022-07-30T08:52:00.369Z,4.70
2022-07-30T08:53:00.068Z,4.70
2022-07-30T08:54:00.089Z,5.20
2022-07-30T08:55:00.022Z,4.90
2022-07-30T08:56:00.006Z,4.50
2022-07-30T08:57:00.014Z,4.70
2022-07-30T08:57:59.966Z,4.70
2022-07-30T08:58:59.949Z,4.40
2022-07-30T09:00:01.710Z,4.20
2022-07-30T09:00:59.918Z,4.60
2022-07-30T09:02:00.139Z,4.80
2022-07-30T09:02:59.880Z,5.10
2022-07-30T09:04:00.613Z,4.40
2022-07-30T09:04:59.844Z,4.40
2022-07-30T09:05:59.827Z,4.10
2022-07-30T09:07:00.029Z,4.40
2022-07-30T09:07:59.790Z,4.30
2022-07-30T09:08:59.771Z,4.20
2022-07-30T09:09:59.753Z,4.20
2022-07-30T09:10:59.740Z,4.40
2022-07-30T09:11:59.749Z,4.30
2022-07-30T09:12:59.700Z,4.50
2022-07-30T09:13:59.680Z,4.60
2022-07-30T09:14:59.666Z,4.70
2022-07-30T09:15:59.643Z,4.70
2022-07-30T09:17:00.715Z,4.50
2022-07-30T09:18:00.451Z,4.90
2022-07-30T09:18:59.596Z,4.70
2022-07-30T09:19:59.584Z,5.20
2022-07-30T09:20:59.563Z,5.20
2022-07-30T09:21:59.566Z,4.80
2022-07-30T09:22:59.521Z,5.10
2022-07-30T09:23:59.502Z,5.20
2022-07-30T09:24:59.483Z,5.10
2022-07-30T09:25:59.468Z,5.20
2022-07-30T09:27:00.380Z,5.70
2022-07-30T09:27:59.433Z,5.00
2022-07-30T09:28:59.946Z,5.00
2022-07-30T09:29:59.411Z,5.30
2022-07-30T09:30:59.380Z,5.20
2022-07-30T09:31:59.725Z,5.20
2022-07-30T09:32:59.344Z,5.60
2022-07-30T09:33:59.328Z,5.50
2022-07-30T09:34:59.310Z,5.40
2022-07-30T09:35:59.297Z,5.90
2022-07-30T09:36:59.303Z,5.40
2022-07-30T09:38:02.969Z,5.50
2022-07-30T09:39:01.239Z,5.10
2022-07-30T09:39:59.908Z,5.50
2022-07-30T09:41:04.878Z,5.30
2022-07-30T09:42:00.492Z,5.50
2022-07-30T09:42:59.201Z,5.10
2022-07-30T09:43:59.155Z,5.60
2022-07-30T09:44:59.138Z,5.20
2022-07-30T09:45:59.120Z,5.30
2022-07-30T09:46:59.133Z,5.80
2022-07-30T09:47:59.085Z,5.90
2022-07-30T09:48:59.087Z,5.70
2022-07-30T09:50:02.806Z,5.70
2022-07-30T09:51:00.034Z,5.70
2022-07-30T09:51:59.018Z,5.70
2022-07-30T09:52:59.030Z,6.00
2022-07-30T09:53:58.979Z,6.40
2022-07-30T09:54:59.943Z,6.30
2022-07-30T09:55:58.947Z,6.20
2022-07-30T09:56:58.932Z,6.20
2022-07-30T09:57:58.993Z,6.60
2022-07-30T09:58:58.892Z,6.10
2022-07-30T09:59:59.987Z,5.90
2022-07-30T10:01:00.432Z,5.70
2022-07-30T10:02:00.950Z,6.60
2022-07-30T10:02:58.847Z,6.30
2022-07-30T10:03:58.803Z,6.50
2022-07-30T10:04:58.789Z,6.50
2022-07-30T10:05:58.772Z,6.90
2022-07-30T10:06:58.752Z,6.60
2022-07-30T10:07:58.760Z,6.40
2022-07-30T10:08:58.715Z,6.70
2022-07-30T10:09:58.695Z,6.10
2022-07-30T10:10:58.675Z,6.40
2022-07-30T10:11:59.808Z,6.40
2022-07-30T10:12:58.671Z,7.10
2022-07-30T10:13:58.624Z,6.40
2022-07-30T10:14:58.608Z,6.30
2022-07-30T10:15:58.597Z,6.70
2022-07-30T10:16:58.571Z,6.00
2022-07-30T10:17:58.587Z,6.10
2022-07-30T10:18:58.538Z,6.10
2022-07-30T10:19:58.528Z,6.10
2022-07-30T10:20:58.506Z,6.30
2022-07-30T10:21:58.561Z,5.60
2022-07-30T10:22:58.493Z,5.90
2022-07-30T10:23:58.451Z,5.90
2022-07-30T10:24:58.433Z,5.70
2022-07-30T10:25:58.419Z,5.80
2022-07-30T10:26:58.475Z,5.70
2022-07-30T10:27:58.405Z,5.80
2022-07-30T10:28:58.360Z,5.80
2022-07-30T10:29:58.343Z,5.40
2022-07-30T10:30:58.327Z,5.20
2022-07-30T10:31:58.312Z,5.20
2022-07-30T10:32:58.324Z,5.20
2022-07-30T10:33:58.276Z,4.60
2022-07-30T10:34:58.257Z,4.90
2022-07-30T10:35:58.237Z,4.70
2022-07-30T10:36:58.218Z,4.70
2022-07-30T10:37:59.055Z,4.60
2022-07-30T10:38:58.182Z,4.40
2022-07-30T10:39:58.161Z,4.30
2022-07-30T10:40:58.148Z,4.50
2022-07-30T10:41:58.129Z,4.90
2022-07-30T10:42:58.140Z,4.70
2022-07-30T10:43:58.095Z,5.20
2022-07-30T10:44:58.076Z,4.40
2022-07-30T10:45:58.062Z,4.40
2022-07-30T10:46:59.418Z,4.60
2022-07-30T10:47:59.057Z,4.00
2022-07-30T10:48:58.077Z,4.20
2022-07-30T10:49:58.994Z,4.30
2022-07-30T10:50:57.976Z,4.40
2022-07-30T10:51:57.957Z,3.80
2022-07-30T10:52:57.967Z,4.00
2022-07-30T10:53:57.923Z,3.90
2022-07-30T10:54:57.905Z,4.00
2022-07-30T10:55:57.890Z,3.90
2022-07-30T10:56:57.870Z,4.00
2022-07-30T10:57:57.882Z,3.80
2022-07-30T10:58:57.832Z,3.90
2022-07-30T10:59:57.813Z,3.80
2022-07-30T11:00:57.795Z,4.10
2022-07-30T11:01:57.781Z,4.10
2022-07-30T11:02:57.793Z,4.10
2022-07-30T11:03:57.741Z,3.70
2022-07-30T11:04:57.722Z,4.00
2022-07-30T11:05:57.740Z,3.90
2022-07-30T11:06:57.687Z,3.80
2022-07-30T11:07:57.701Z,3.80
2022-07-30T11:08:58.131Z,3.60
2022-07-30T11:10:08.749Z,3.70
2022-07-30T11:10:58.615Z,3.60
2022-07-30T11:12:01.821Z,3.80
2022-07-30T11:12:58.618Z,3.50
2022-07-30T11:13:57.591Z,3.40
2022-07-30T11:14:57.554Z,3.40
2022-07-30T11:15:57.532Z,3.30
2022-07-30T11:16:57.515Z,3.40
2022-07-30T11:17:58.083Z,3.30
2022-07-30T11:19:27.220Z,3.50
2022-07-30T11:20:01.813Z,3.40
2022-07-30T11:20:57.447Z,3.40
2022-07-30T11:21:57.427Z,3.30
2022-07-30T11:22:57.435Z,3.50
2022-07-30T11:23:57.392Z,3.50
2022-07-30T11:24:57.369Z,3.40
2022-07-30T11:25:57.356Z,3.50
2022-07-30T11:26:57.334Z,3.50
2022-07-30T11:27:57.346Z,3.50
2022-07-30T11:28:57.314Z,3.70
2022-07-30T11:29:57.307Z,3.80
2022-07-30T11:30:57.267Z,3.80
2022-07-30T11:31:59.507Z,3.60
2022-07-30T11:32:57.260Z,3.70
2022-07-30T11:33:57.712Z,3.40
2022-07-30T11:34:57.196Z,3.70
2022-07-30T11:35:57.178Z,3.60
2022-07-30T11:36:57.161Z,3.90
2022-07-30T11:37:57.171Z,3.90
2022-07-30T11:39:00.088Z,3.60
2022-07-30T11:39:59.100Z,3.60
2022-07-30T11:40:57.084Z,3.80
2022-07-30T11:41:57.067Z,4.10
2022-07-30T11:42:57.072Z,3.70
2022-07-30T11:43:57.031Z,3.70
2022-07-30T11:45:00.951Z,3.60
2022-07-30T11:45:57.994Z,3.60
2022-07-30T11:46:56.977Z,3.90
2022-07-30T11:48:00.092Z,3.40
2022-07-30T11:48:57.115Z,3.70
2022-07-30T11:49:56.919Z,3.80
2022-07-30T11:51:00.743Z,3.70
2022-07-30T11:51:57.879Z,3.70
2022-07-30T11:52:56.888Z,3.40
2022-07-30T11:53:56.845Z,3.70
2022-07-30T11:54:56.827Z,3.30
2022-07-30T11:55:56.806Z,3.30
2022-07-30T11:57:00.731Z,3.20
2022-07-30T11:57:57.798Z,3.10
2022-07-30T11:58:56.752Z,3.60
2022-07-30T11:59:56.732Z,3.30
2022-07-30T12:00:56.723Z,3.30
2022-07-30T12:01:56.693Z,3.10
2022-07-30T12:02:59.843Z,3.20
2022-07-30T12:03:56.656Z,3.40
2022-07-30T12:04:56.636Z,3.30
2022-07-30T12:05:56.618Z,3.60
2022-07-30T12:06:56.601Z,3.40
2022-07-30T12:07:56.606Z,3.10
2022-07-30T12:08:58.802Z,3.40
2022-07-30T12:09:56.546Z,3.80
2022-07-30T12:10:56.528Z,3.50
2022-07-30T12:11:56.508Z,3.40
2022-07-30T12:12:56.515Z,3.40
2022-07-30T12:13:56.470Z,3.30
2022-07-30T12:15:01.571Z,3.40
2022-07-30T12:15:58.434Z,3.30
2022-07-30T12:16:56.417Z,3.40
2022-07-30T12:18:17.575Z,4.10
2022-07-30T12:18:58.385Z,3.60
2022-07-30T12:19:56.362Z,3.30
2022-07-30T12:20:57.624Z,3.20
2022-07-30T12:21:56.325Z,3.40
2022-07-30T12:22:56.343Z,3.60
2022-07-30T12:23:56.291Z,3.70
2022-07-30T12:24:56.274Z,3.60
2022-07-30T12:25:56.257Z,3.60
2022-07-30T12:26:56.234Z,3.60
2022-07-30T12:27:56.243Z,3.40
2022-07-30T12:28:56.203Z,3.30
2022-07-30T12:29:56.180Z,3.40
2022-07-30T12:30:56.165Z,3.30
2022-07-30T12:31:56.146Z,3.30
2022-07-30T12:32:56.156Z,3.20
2022-07-30T12:33:56.115Z,3.00
2022-07-30T12:34:56.091Z,3.50
2022-07-30T12:35:56.076Z,3.20
2022-07-30T12:36:56.055Z,3.50
2022-07-30T12:37:56.060Z,3.40
2022-07-30T12:38:56.012Z,3.30
2022-07-30T12:39:55.996Z,3.10
2022-07-30T12:40:55.979Z,3.80
2022-07-30T12:41:55.999Z,3.50
2022-07-30T12:42:55.946Z,3.80
2022-07-30T12:43:55.952Z,3.40
2022-07-30T12:44:55.905Z,4.00
2022-07-30T12:45:55.914Z,3.60
2022-07-30T12:46:55.870Z,3.20
2022-07-30T12:47:55.852Z,3.40
2022-07-30T12:48:55.942Z,3.20
2022-07-30T12:49:55.882Z,3.00
2022-07-30T12:50:55.825Z,3.20
2022-07-30T12:51:59.747Z,3.30
2022-07-30T12:52:55.758Z,3.10
2022-07-30T12:53:55.766Z,3.50
2022-07-30T12:54:55.725Z,3.30
2022-07-30T12:55:55.702Z,3.60
2022-07-30T12:56:55.687Z,3.40
2022-07-30T12:57:55.666Z,3.50
2022-07-30T12:58:55.675Z,3.60
2022-07-30T12:59:55.633Z,3.60
2022-07-30T13:00:55.613Z,3.50
2022-07-30T13:01:55.645Z,3.50
2022-07-30T13:02:55.572Z,3.50
2022-07-30T13:03:55.585Z,3.60
2022-07-30T13:05:10.932Z,3.50
2022-07-30T13:05:56.549Z,3.80
2022-07-30T13:06:55.504Z,3.60
2022-07-30T13:07:55.480Z,3.20
2022-07-30T13:08:55.499Z,3.50
2022-07-30T13:09:55.447Z,3.20
2022-07-30T13:10:55.430Z,3.50
2022-07-30T13:11:55.410Z,3.40
2022-07-30T13:12:55.392Z,3.30
2022-07-30T13:13:55.406Z,3.20
2022-07-30T13:14:55.351Z,3.30